createdAt,value
2018-10-21T00:01:16.412Z,11.03
2018-10-21T00:03:43.689Z,11.20
2018-10-21T00:06:10.920Z,12.07
2018-10-21T00:08:38.208Z,12.07
2018-10-21T00:11:05.549Z,10.90
2018-10-21T00:13:32.842Z,11.57
2018-10-21T00:16:00.128Z,10.88
2018-10-21T00:18:27.446Z,11.78
2018-10-21T00:20:54.808Z,12.03
2018-10-21T00:23:22.109Z,12.85
2018-10-21T00:25:49.409Z,13.60
2018-10-21T00:28:16.829Z,13.20
2018-10-21T00:30:44.169Z,12.30
2018-10-21T00:33:11.669Z,11.68
2018-10-21T00:35:38.881Z,11.12
2018-10-21T00:38:06.209Z,11.28
2018-10-21T00:40:33.529Z,11.10
2018-10-21T00:43:00.832Z,11.00
2018-10-21T00:45:28.129Z,10.08
2018-10-21T00:47:55.432Z,10.95
2018-10-21T00:50:22.761Z,11.15
2018-10-21T00:52:50.039Z,11.93
2018-10-21T00:55:17.345Z,11.53
2018-10-21T00:57:44.644Z,13.40
2018-10-21T01:00:12.758Z,12.47
2018-10-21T01:02:40.076Z,11.85
2018-10-21T01:05:08.521Z,10.80
2018-10-21T01:07:35.888Z,11.05
2018-10-21T01:10:03.450Z,12.20
2018-10-21T01:12:30.744Z,10.25
2018-10-21T01:14:58.080Z,10.18
2018-10-21T01:17:25.335Z,11.22
2018-10-21T01:19:52.652Z,10.55
2018-10-21T01:22:20.009Z,10.88
2018-10-21T01:24:47.333Z,10.00
2018-10-21T01:27:14.670Z,11.55
2018-10-21T01:29:45.120Z,10.82
2018-10-21T01:32:12.793Z,10.82
2018-10-21T01:34:40.102Z,11.48
2018-10-21T01:37:07.425Z,11.05
2018-10-21T01:39:45.069Z,10.28
2018-10-21T01:42:12.373Z,11.75
2018-10-21T01:44:39.657Z,11.20
2018-10-21T01:47:06.986Z,9.73
2018-10-21T01:49:34.281Z,9.60
2018-10-21T01:52:01.565Z,9.30
2018-10-21T01:54:28.866Z,10.10
2018-10-21T01:56:56.294Z,9.90
2018-10-21T01:59:23.578Z,11.03
2018-10-21T02:01:50.873Z,11.57
2018-10-21T02:04:18.229Z,9.65
2018-10-21T02:06:45.565Z,10.60
2018-10-21T02:09:12.919Z,10.75
2018-10-21T02:11:40.161Z,11.10
2018-10-21T02:14:07.473Z,11.60
2018-10-21T02:16:34.773Z,11.10
2018-10-21T02:19:02.048Z,10.10
2018-10-21T02:21:29.340Z,10.68
2018-10-21T02:23:56.641Z,11.15
2018-10-21T02:26:24.062Z,10.28
2018-10-21T02:28:51.357Z,10.40
2018-10-21T02:31:18.681Z,10.78
2018-10-21T02:33:45.979Z,10.40
2018-10-21T02:36:13.260Z,12.50
2018-10-21T02:38:40.560Z,11.03
2018-10-21T02:41:21.877Z,10.00
2018-10-21T02:43:49.161Z,9.65
2018-10-21T02:46:16.516Z,9.83
2018-10-21T02:48:43.814Z,10.50
2018-10-21T02:51:11.932Z,10.65
2018-10-21T02:53:39.265Z,10.50
2018-10-21T02:56:07.310Z,10.90
2018-10-21T02:58:34.645Z,11.35
2018-10-21T03:01:01.926Z,10.58
2018-10-21T03:03:29.220Z,11.33
2018-10-21T03:05:56.593Z,10.78
2018-10-21T03:08:23.916Z,11.55
2018-10-21T03:10:51.137Z,11.38
2018-10-21T03:13:18.389Z,9.78
2018-10-21T03:15:45.610Z,10.85
2018-10-21T03:18:12.887Z,10.53
2018-10-21T03:20:40.101Z,9.93
2018-10-21T03:23:07.349Z,11.35
2018-10-21T03:25:34.572Z,10.72
2018-10-21T03:28:01.830Z,11.18
2018-10-21T03:30:29.061Z,11.68
2018-10-21T03:32:56.382Z,11.25
2018-10-21T03:35:23.533Z,10.45
2018-10-21T03:37:50.836Z,10.70
2018-10-21T03:40:18.164Z,10.78
2018-10-21T03:42:45.348Z,12.23
2018-10-21T03:45:12.569Z,10.13
2018-10-21T03:47:40.049Z,10.65
2018-10-21T03:50:07.353Z,14.47
2018-10-21T03:52:34.701Z,11.60
2018-10-21T03:55:02.107Z,10.10
2018-10-21T03:57:29.542Z,11.40
2018-10-21T03:59:56.829Z,10.80
2018-10-21T04:02:24.088Z,12.47
2018-10-21T04:04:51.601Z,12.10
2018-10-21T04:07:19.103Z,12.40
2018-10-21T04:09:46.565Z,11.70
2018-10-21T04:12:13.976Z,13.13
2018-10-21T04:14:41.478Z,14.10
2018-10-21T04:17:08.953Z,12.37
2018-10-21T04:19:36.501Z,12.35
2018-10-21T04:22:03.972Z,12.00
2018-10-21T04:24:31.550Z,12.58
2018-10-21T04:26:59.120Z,12.37
2018-10-21T04:29:26.494Z,12.45
2018-10-21T04:31:53.908Z,12.70
2018-10-21T04:34:21.233Z,12.55
2018-10-21T04:36:48.507Z,12.20
2018-10-21T04:39:27.438Z,10.80
2018-10-21T04:41:54.728Z,11.55
2018-10-21T04:44:22.018Z,11.03
2018-10-21T04:46:49.415Z,12.03
2018-10-21T04:49:16.592Z,12.50
2018-10-21T04:51:43.865Z,12.35
2018-10-21T04:54:11.165Z,11.43
2018-10-21T04:56:38.488Z,13.88
2018-10-21T04:59:05.820Z,11.83
2018-10-21T05:01:33.125Z,12.75
2018-10-21T05:04:01.511Z,13.38
2018-10-21T05:06:28.914Z,13.58
2018-10-21T05:08:56.242Z,12.98
2018-10-21T05:11:23.481Z,12.25
2018-10-21T05:13:50.705Z,11.68
2018-10-21T05:16:18.021Z,12.70
2018-10-21T05:18:45.221Z,11.73
2018-10-21T05:21:14.167Z,13.95
2018-10-21T05:23:48.086Z,13.22
2018-10-21T05:26:16.200Z,12.65
2018-10-21T05:28:43.477Z,12.65
2018-10-21T05:31:10.718Z,13.30
2018-10-21T05:33:39.181Z,13.03
2018-10-21T05:36:07.942Z,12.58
2018-10-21T05:38:35.172Z,13.53
2018-10-21T05:41:02.397Z,12.78
2018-10-21T05:43:29.634Z,12.88
2018-10-21T05:45:56.931Z,12.13
2018-10-21T05:48:24.132Z,13.68
2018-10-21T05:50:51.356Z,12.65
2018-10-21T05:53:18.605Z,12.95
2018-10-21T05:55:45.826Z,12.63
2018-10-21T05:58:13.079Z,11.55
2018-10-21T06:00:40.468Z,13.05
2018-10-21T06:03:07.886Z,13.15
2018-10-21T06:05:37.361Z,13.68
2018-10-21T06:08:05.036Z,13.80
2018-10-21T06:10:32.568Z,12.43
2018-10-21T06:13:00.093Z,11.50
2018-10-21T06:15:27.664Z,13.72
2018-10-21T06:17:55.109Z,12.33
2018-10-21T06:20:23.912Z,13.25
2018-10-21T06:22:51.777Z,13.78
2018-10-21T06:25:19.877Z,12.30
2018-10-21T06:27:47.492Z,14.15
2018-10-21T06:30:14.928Z,14.20
2018-10-21T06:32:42.400Z,13.22
2018-10-21T06:35:10.243Z,13.93
2018-10-21T06:37:38.021Z,13.62
2018-10-21T06:40:06.931Z,14.43
2018-10-21T06:42:34.277Z,12.73
2018-10-21T06:45:01.901Z,15.00
2018-10-21T06:47:29.541Z,15.98
2018-10-21T06:49:56.847Z,17.45
2018-10-21T06:52:24.373Z,19.07
2018-10-21T06:54:52.069Z,16.42
2018-10-21T06:57:19.755Z,17.50
2018-10-21T06:59:46.968Z,16.55
2018-10-21T07:02:14.248Z,19.30
2018-10-21T07:04:41.760Z,18.45
2018-10-21T07:07:09.237Z,20.77
2018-10-21T07:09:36.796Z,21.30
2018-10-21T07:12:04.394Z,20.15
2018-10-21T07:14:31.761Z,20.72
2018-10-21T07:16:59.074Z,23.42
2018-10-21T07:19:26.413Z,23.52
2018-10-21T07:21:53.837Z,21.10
2018-10-21T07:24:21.282Z,24.82
2018-10-21T07:26:48.716Z,29.55
2018-10-21T07:29:16.004Z,26.25
2018-10-21T07:31:43.330Z,27.20
2018-10-21T07:34:10.802Z,26.90
2018-10-21T07:36:38.072Z,26.35
2018-10-21T07:39:07.268Z,24.27
2018-10-21T07:41:34.754Z,20.72
2018-10-21T07:44:02.245Z,22.07
2018-10-21T07:46:29.481Z,23.05
2018-10-21T07:48:56.851Z,20.55
2018-10-21T07:51:24.097Z,18.77
2018-10-21T07:53:51.412Z,18.00
2018-10-21T07:56:18.701Z,17.37
2018-10-21T07:58:45.981Z,18.32
2018-10-21T08:01:13.328Z,17.98
2018-10-21T08:03:40.601Z,15.38
2018-10-21T08:06:32.321Z,17.40
2018-10-21T08:08:59.654Z,16.23
2018-10-21T08:11:26.965Z,16.17
2018-10-21T08:13:54.309Z,14.85
2018-10-21T08:16:21.801Z,15.10
2018-10-21T08:18:49.659Z,15.08
2018-10-21T08:21:16.978Z,14.43
2018-10-21T08:23:44.281Z,13.25
2018-10-21T08:26:11.843Z,14.90
2018-10-21T08:28:39.124Z,14.38
2018-10-21T08:31:06.446Z,13.88
2018-10-21T08:33:33.724Z,14.40
2018-10-21T08:36:01.097Z,13.70
2018-10-21T08:38:28.384Z,13.93
2018-10-21T08:40:55.673Z,16.30
2018-10-21T08:43:22.949Z,15.88
2018-10-21T08:45:50.248Z,13.98
2018-10-21T08:48:17.524Z,14.85
2018-10-21T08:50:44.865Z,13.15
2018-10-21T08:53:12.144Z,14.20
2018-10-21T08:55:39.429Z,13.95
2018-10-21T08:58:06.773Z,13.70
2018-10-21T09:00:34.129Z,13.93
2018-10-21T09:03:01.481Z,13.03
2018-10-21T09:05:28.781Z,12.70
2018-10-21T09:07:56.081Z,12.43
2018-10-21T09:10:23.490Z,13.20
2018-10-21T09:12:50.596Z,13.30
2018-10-21T09:15:18.454Z,10.70
2018-10-21T09:17:45.604Z,10.53
2018-10-21T09:20:15.063Z,11.87
2018-10-21T09:22:42.317Z,11.17
2018-10-21T09:25:10.355Z,10.10
2018-10-21T09:27:38.360Z,12.67
2018-10-21T09:30:06.980Z,16.90
2018-10-21T09:32:34.221Z,12.47
2018-10-21T09:35:01.461Z,12.77
2018-10-21T09:37:28.796Z,13.83
2018-10-21T09:39:56.057Z,11.07
2018-10-21T09:42:23.448Z,9.50
2018-10-21T09:44:50.710Z,9.80
2018-10-21T09:47:17.945Z,9.50
2018-10-21T09:49:45.208Z,10.90
2018-10-21T09:52:12.579Z,9.43
2018-10-21T09:54:39.660Z,9.30
2018-10-21T09:57:06.931Z,10.13
2018-10-21T09:59:34.180Z,8.43
2018-10-21T10:03:05.729Z,9.47
2018-10-21T10:05:32.953Z,8.27
2018-10-21T10:08:01.525Z,10.47
2018-10-21T10:10:31.193Z,9.00
2018-10-21T10:12:58.493Z,8.67
2018-10-21T10:15:25.980Z,10.27
2018-10-21T10:17:53.257Z,8.70
2018-10-21T10:20:20.482Z,9.03
2018-10-21T10:22:47.882Z,8.80
2018-10-21T10:25:15.085Z,8.90
2018-10-21T10:27:42.276Z,7.03
2018-10-21T10:30:10.637Z,7.60
2018-10-21T10:32:38.596Z,7.10
2018-10-21T10:35:06.269Z,7.80
2018-10-21T10:37:33.568Z,8.43
2018-10-21T10:40:00.859Z,8.60
2018-10-21T10:42:28.037Z,8.87
2018-10-21T10:44:55.277Z,8.70
2018-10-21T10:47:22.526Z,9.03
2018-10-21T10:49:49.751Z,8.90
2018-10-21T10:52:17.014Z,8.50
2018-10-21T10:54:44.269Z,9.40
2018-10-21T10:57:11.513Z,9.57
2018-10-21T10:59:38.759Z,9.17
2018-10-21T11:02:06.001Z,9.90
2018-10-21T11:04:33.232Z,10.03
2018-10-21T11:07:00.514Z,9.70
2018-10-21T11:09:27.729Z,9.90
2018-10-21T11:11:54.957Z,9.67
2018-10-21T11:14:22.186Z,10.00
2018-10-21T11:16:49.421Z,9.80
2018-10-21T11:19:16.727Z,10.60
2018-10-21T11:21:44.045Z,10.23
2018-10-21T11:24:11.237Z,10.13
2018-10-21T11:26:38.494Z,10.63
2018-10-21T11:29:05.721Z,10.07
2018-10-21T11:31:32.954Z,10.10
2018-10-21T11:34:00.244Z,10.90
2018-10-21T11:36:27.446Z,10.47
2018-10-21T11:38:54.733Z,10.77
2018-10-21T11:41:22.178Z,10.03
2018-10-21T11:43:49.408Z,10.73
2018-10-21T11:46:16.770Z,10.00
2018-10-21T11:48:43.929Z,8.40
2018-10-21T11:51:11.156Z,9.03
2018-10-21T11:53:38.387Z,11.03
2018-10-21T11:56:05.642Z,9.20
2018-10-21T11:58:32.868Z,9.60
2018-10-21T12:01:00.180Z,9.97
2018-10-21T12:03:27.411Z,10.10
2018-10-21T12:05:54.685Z,9.63
2018-10-21T12:08:21.921Z,8.60
2018-10-21T12:10:49.140Z,8.83
2018-10-21T12:13:16.440Z,10.37
2018-10-21T12:15:43.603Z,9.67
2018-10-21T12:18:10.825Z,8.37
2018-10-21T12:20:38.612Z,8.90
2018-10-21T12:23:05.986Z,8.93
2018-10-21T12:25:33.293Z,9.60
2018-10-21T12:28:00.566Z,9.83
2018-10-21T12:30:27.851Z,8.63
2018-10-21T12:32:55.077Z,9.90
2018-10-21T12:35:22.300Z,9.43
2018-10-21T12:37:49.536Z,11.57
2018-10-21T12:40:16.802Z,10.50
2018-10-21T12:42:44.029Z,10.10
2018-10-21T12:45:11.797Z,8.30
2018-10-21T12:47:39.064Z,10.20
2018-10-21T12:50:06.868Z,10.47
2018-10-21T12:52:34.254Z,9.37
2018-10-21T12:55:01.560Z,9.67
2018-10-21T12:57:28.745Z,9.50
2018-10-21T12:59:55.993Z,9.70
2018-10-21T13:02:23.318Z,11.00
2018-10-21T13:04:50.506Z,10.60
2018-10-21T13:07:17.782Z,10.40
2018-10-21T13:09:44.969Z,13.00
2018-10-21T13:12:12.217Z,11.37
2018-10-21T13:14:39.461Z,12.10
2018-10-21T13:17:06.696Z,11.83
2018-10-21T13:19:33.978Z,10.87
2018-10-21T13:22:01.238Z,10.33
2018-10-21T13:24:28.476Z,9.50
2018-10-21T13:26:55.692Z,10.80
2018-10-21T13:29:22.928Z,9.43
2018-10-21T13:31:50.151Z,9.70
2018-10-21T13:34:17.438Z,10.30
2018-10-21T13:36:44.688Z,9.10
2018-10-21T13:39:13.181Z,8.30
2018-10-21T13:41:40.607Z,9.30
2018-10-21T13:44:07.828Z,9.27
2018-10-21T13:46:35.086Z,8.30
2018-10-21T13:49:02.460Z,8.63
2018-10-21T13:51:29.705Z,8.93
2018-10-21T13:53:56.913Z,8.53
2018-10-21T13:56:24.166Z,9.43
2018-10-21T13:58:51.405Z,8.73
2018-10-21T14:01:18.705Z,8.50
2018-10-21T14:03:46.181Z,9.97
2018-10-21T14:06:13.409Z,8.90
2018-10-21T14:08:40.620Z,10.00
2018-10-21T14:11:07.913Z,7.47
2018-10-21T14:13:35.185Z,9.20
2018-10-21T14:16:02.526Z,10.07
2018-10-21T14:18:29.797Z,8.83
2018-10-21T14:20:57.085Z,9.20
2018-10-21T14:23:24.361Z,8.37
2018-10-21T14:25:51.671Z,8.90
2018-10-21T14:28:18.957Z,7.83
2018-10-21T14:30:46.263Z,9.27
2018-10-21T14:33:13.597Z,9.20
2018-10-21T14:35:40.857Z,9.20
2018-10-21T14:38:08.212Z,9.50
2018-10-21T14:40:35.436Z,8.70
2018-10-21T14:43:02.716Z,8.70
2018-10-21T14:45:30.037Z,8.53
2018-10-21T14:47:57.350Z,8.90
2018-10-21T14:50:24.580Z,8.67
2018-10-21T14:52:51.898Z,10.27
2018-10-21T14:55:19.149Z,8.70
2018-10-21T14:57:46.437Z,8.60
2018-10-21T15:00:13.875Z,8.37
2018-10-21T15:02:41.369Z,8.53
2018-10-21T15:05:10.479Z,7.80
2018-10-21T15:07:38.229Z,7.50
2018-10-21T15:10:06.527Z,8.50
2018-10-21T15:12:33.784Z,8.13
2018-10-21T15:15:01.009Z,6.90
2018-10-21T15:17:28.244Z,6.47
2018-10-21T15:19:55.504Z,7.47
2018-10-21T15:22:22.837Z,6.73
2018-10-21T15:24:50.058Z,7.97
2018-10-21T15:27:17.301Z,7.27
2018-10-21T15:29:44.517Z,5.90
2018-10-21T15:32:11.812Z,7.00
2018-10-21T15:34:39.056Z,8.53
2018-10-21T15:37:06.885Z,7.80
2018-10-21T15:39:34.104Z,7.53
2018-10-21T15:42:01.338Z,10.43
2018-10-21T15:44:28.557Z,8.50
2018-10-21T15:46:55.789Z,6.60
2018-10-21T15:49:23.008Z,5.47
2018-10-21T15:51:50.271Z,5.90
2018-10-21T15:54:17.533Z,5.33
2018-10-21T15:56:45.117Z,5.77
2018-10-21T15:59:12.340Z,6.90
2018-10-21T16:01:39.560Z,5.93
2018-10-21T16:04:06.804Z,6.43
2018-10-21T16:06:34.016Z,6.30
2018-10-21T16:09:01.240Z,5.53
2018-10-21T16:11:28.460Z,6.83
2018-10-21T16:13:55.781Z,6.10
2018-10-21T16:16:22.932Z,5.10
2018-10-21T16:18:50.154Z,5.10
2018-10-21T16:21:17.451Z,5.10
2018-10-21T16:23:44.686Z,5.27
2018-10-21T16:26:12.062Z,6.40
2018-10-21T16:28:39.285Z,6.50
2018-10-21T16:31:06.537Z,6.60
2018-10-21T16:33:33.763Z,8.30
2018-10-21T16:36:01.942Z,8.77
2018-10-21T16:38:29.281Z,10.33
2018-10-21T16:40:56.464Z,10.47
2018-10-21T16:43:23.705Z,11.17
2018-10-21T16:45:51.011Z,11.70
2018-10-21T16:48:18.288Z,38.10
2018-10-21T16:50:45.507Z,20.00
2018-10-21T16:53:12.813Z,14.13
2018-10-21T16:55:39.971Z,14.20
2018-10-21T16:58:07.176Z,12.90
2018-10-21T17:00:34.618Z,12.43
2018-10-21T17:03:01.717Z,17.10
2018-10-21T17:05:28.964Z,22.50
2018-10-21T17:07:56.188Z,13.50
2018-10-21T17:10:23.744Z,11.23
2018-10-21T17:12:50.660Z,8.53
2018-10-21T17:15:17.886Z,7.73
2018-10-21T17:17:45.120Z,9.67
2018-10-21T17:20:13.646Z,7.77
2018-10-21T17:22:41.606Z,11.10
2018-10-21T17:25:08.903Z,11.00
2018-10-21T17:27:36.225Z,15.80
2018-10-21T17:30:04.889Z,19.00
2018-10-21T17:32:32.112Z,16.60
2018-10-21T17:34:59.410Z,22.33
2018-10-21T17:37:26.667Z,26.03
2018-10-21T17:39:53.943Z,23.77
2018-10-21T17:42:21.388Z,20.43
2018-10-21T17:44:48.632Z,16.50
2018-10-21T17:47:15.922Z,23.30
2018-10-21T17:49:43.301Z,31.23
2018-10-21T17:52:10.618Z,41.63
2018-10-21T17:54:37.774Z,53.47
2018-10-21T17:57:05.070Z,71.27
2018-10-21T17:59:32.410Z,44.33
2018-10-21T18:01:59.641Z,35.80
2018-10-21T18:04:27.302Z,27.40
2018-10-21T18:06:54.772Z,23.17
2018-10-21T18:09:22.105Z,20.60
2018-10-21T18:11:49.458Z,17.93
2018-10-21T18:14:16.760Z,15.63
2018-10-21T18:16:44.045Z,15.20
2018-10-21T18:19:11.479Z,14.30
2018-10-21T18:21:38.721Z,13.90
2018-10-21T18:24:06.048Z,15.50
2018-10-21T18:26:33.364Z,14.10
2018-10-21T18:29:00.629Z,12.70
2018-10-21T18:31:27.854Z,14.80
2018-10-21T18:33:55.222Z,12.73
2018-10-21T18:36:22.578Z,10.87
2018-10-21T18:38:49.763Z,9.80
2018-10-21T18:41:17.000Z,10.20
2018-10-21T18:43:44.245Z,10.83
2018-10-21T18:46:11.561Z,10.43
2018-10-21T18:48:38.793Z,13.47
2018-10-21T18:51:06.232Z,14.03
2018-10-21T18:53:33.503Z,9.20
2018-10-21T18:56:00.827Z,7.43
2018-10-21T18:58:28.057Z,8.33
2018-10-21T19:00:55.384Z,8.30
2018-10-21T19:03:22.593Z,8.40
2018-10-21T19:05:49.817Z,8.20
2018-10-21T19:08:17.104Z,10.10
2018-10-21T19:10:44.389Z,9.67
2018-10-21T19:13:11.759Z,19.00
2018-10-21T19:15:39.272Z,11.53
2018-10-21T19:18:06.561Z,8.43
2018-10-21T19:20:33.836Z,7.23
2018-10-21T19:23:01.202Z,7.80
2018-10-21T19:25:28.498Z,7.97
2018-10-21T19:27:55.968Z,8.50
2018-10-21T19:30:23.217Z,8.67
2018-10-21T19:32:50.632Z,7.67
2018-10-21T19:35:17.917Z,9.10
2018-10-21T19:37:45.217Z,8.30
2018-10-21T19:40:13.860Z,9.83
2018-10-21T19:42:41.804Z,9.35
2018-10-21T19:45:10.069Z,10.85
2018-10-21T19:47:37.730Z,8.50
2018-10-21T19:50:06.182Z,9.15
2018-10-21T19:52:33.394Z,12.43
2018-10-21T19:55:00.681Z,10.70
2018-10-21T19:57:28.015Z,9.45
2018-10-21T19:59:55.336Z,10.00
2018-10-21T20:02:22.683Z,9.70
2018-10-21T20:04:49.923Z,9.38
2018-10-21T20:07:17.344Z,9.93
2018-10-21T20:09:44.649Z,11.80
2018-10-21T20:12:12.138Z,11.13
2018-10-21T20:14:39.475Z,9.75
2018-10-21T20:17:06.760Z,11.00
2018-10-21T20:19:34.129Z,10.20
2018-10-21T20:22:01.519Z,9.10
2018-10-21T20:24:28.880Z,8.68
2018-10-21T20:26:56.167Z,9.83
2018-10-21T20:29:23.472Z,8.95
2018-10-21T20:31:50.837Z,9.48
2018-10-21T20:34:18.171Z,9.53
2018-10-21T20:36:45.452Z,9.95
2018-10-21T20:39:12.727Z,11.75
2018-10-21T20:41:40.030Z,10.50
2018-10-21T20:44:07.561Z,9.78
2018-10-21T20:46:35.021Z,10.08
2018-10-21T20:49:02.300Z,10.35
2018-10-21T20:51:29.793Z,12.58
2018-10-21T20:53:56.955Z,12.45
2018-10-21T20:56:24.241Z,12.70
2018-10-21T20:58:51.547Z,12.65
2018-10-21T21:01:18.842Z,11.28
2018-10-21T21:03:46.202Z,10.55
2018-10-21T21:06:13.675Z,12.70
2018-10-21T21:08:40.816Z,11.80
2018-10-21T21:11:09.546Z,10.28
2018-10-21T21:13:41.858Z,10.93
2018-10-21T21:16:11.896Z,9.93
2018-10-21T21:18:39.678Z,10.70
2018-10-21T21:21:07.269Z,9.63
2018-10-21T21:23:34.825Z,10.03
2018-10-21T21:26:02.366Z,11.00
2018-10-21T21:28:30.313Z,10.82
2018-10-21T21:30:57.932Z,11.20
2018-10-21T21:33:25.561Z,11.55
2018-10-21T21:35:54.333Z,10.93
2018-10-21T21:38:22.034Z,9.40
2018-10-21T21:40:49.721Z,10.43
2018-10-21T21:43:20.704Z,10.85
2018-10-21T21:45:48.093Z,10.28
2018-10-21T21:48:15.808Z,11.00
2018-10-21T21:50:47.959Z,10.50
2018-10-21T21:53:18.313Z,10.68
2018-10-21T21:55:45.841Z,10.18
2018-10-21T21:58:13.546Z,11.90
2018-10-21T22:00:40.835Z,11.90
2018-10-21T22:03:08.379Z,11.38
2018-10-21T22:05:35.807Z,15.10
2018-10-21T22:08:03.802Z,12.63
2018-10-21T22:10:35.036Z,12.60
2018-10-21T22:13:02.368Z,12.55
2018-10-21T22:15:29.593Z,11.38
2018-10-21T22:17:56.826Z,11.80
2018-10-21T22:20:24.053Z,12.33
2018-10-21T22:22:51.332Z,11.65
2018-10-21T22:25:18.763Z,11.53
2018-10-21T22:27:46.014Z,10.88
2018-10-21T22:30:13.413Z,12.07
2018-10-21T22:32:40.740Z,10.88
2018-10-21T22:35:08.772Z,11.90
2018-10-21T22:37:36.089Z,12.70
2018-10-21T22:40:03.424Z,10.60
2018-10-21T22:42:30.713Z,10.65
2018-10-21T22:44:57.948Z,11.60
2018-10-21T22:47:25.193Z,10.10
2018-10-21T22:49:52.440Z,10.82
2018-10-21T22:52:19.823Z,11.35
2018-10-21T22:54:47.015Z,10.58
2018-10-21T22:57:17.190Z,10.90
2018-10-21T22:59:45.061Z,10.30
2018-10-21T23:02:12.617Z,11.03
2018-10-21T23:04:39.872Z,13.98
2018-10-21T23:07:07.191Z,13.35
2018-10-21T23:09:34.453Z,12.85
2018-10-21T23:12:01.775Z,12.70
2018-10-21T23:14:29.023Z,11.00
2018-10-21T23:16:59.130Z,10.55
2018-10-21T23:19:38.849Z,12.93
2018-10-21T23:22:09.233Z,13.75
2018-10-21T23:24:37.512Z,12.95
2018-10-21T23:27:05.005Z,14.35
2018-10-21T23:29:32.281Z,11.70
2018-10-21T23:32:00.199Z,11.25
2018-10-21T23:34:27.790Z,10.70
2018-10-21T23:36:55.645Z,11.70
2018-10-21T23:39:24.013Z,10.08
2018-10-21T23:41:51.236Z,10.18
2018-10-21T23:44:18.844Z,9.93
2018-10-21T23:46:46.105Z,11.00
2018-10-21T23:49:13.548Z,10.55
2018-10-21T23:51:40.760Z,11.15
2018-10-21T23:54:08.039Z,10.30
2018-10-21T23:56:35.260Z,10.32
2018-10-21T23:59:02.519Z,10.65
